createdAt,value
2022-09-22T00:00:10.591Z,99298.25
2022-09-22T00:03:01.132Z,99305.67
2022-09-22T00:05:31.521Z,99306.04
2022-09-22T00:08:04.609Z,99304.05
2022-09-22T00:10:36.641Z,99303.31
2022-09-22T00:13:04.443Z,99303.38
2022-09-22T00:15:36.294Z,99301.88
2022-09-22T00:18:04.130Z,99305.20
2022-09-22T00:20:31.812Z,99302.83
2022-09-22T00:23:04.065Z,99301.10
2022-09-22T00:25:36.028Z,99300.29
2022-09-22T00:28:06.131Z,99300.59
2022-09-22T00:30:45.612Z,99300.21
2022-09-22T00:33:13.598Z,99297.17
2022-09-22T00:35:44.076Z,99301.70
2022-09-22T00:38:11.732Z,99299.36
2022-09-22T00:40:42.123Z,99297.31
2022-09-22T00:43:43.097Z,99299.38
2022-09-22T00:46:32.242Z,99297.58
2022-09-22T00:49:08.329Z,99293.06
2022-09-22T00:51:43.954Z,99296.10
2022-09-22T00:54:19.019Z,99294.46
2022-09-22T00:57:06.643Z,99297.52
2022-09-22T00:59:39.049Z,99298.09
2022-09-22T01:02:10.944Z,99294.88
2022-09-22T01:04:43.120Z,99293.61
2022-09-22T01:07:15.410Z,99292.21
2022-09-22T01:09:43.347Z,99293.77
2022-09-22T01:12:15.181Z,99297.02
2022-09-22T01:14:52.487Z,99292.95
2022-09-22T01:17:38.665Z,99293.00
2022-09-22T01:20:30.586Z,99296.94
2022-09-22T01:23:35.282Z,99296.50
2022-09-22T01:26:30.382Z,99298.71
2022-09-22T01:29:38.022Z,99296.09
2022-09-22T01:32:13.117Z,99296.98
2022-09-22T01:35:13.322Z,99297.23
2022-09-22T01:38:02.637Z,99300.88
2022-09-22T01:40:53.234Z,99301.71
2022-09-22T01:43:26.934Z,99303.77
2022-09-22T01:46:01.257Z,99302.14
2022-09-22T01:48:36.833Z,99299.91
2022-09-22T01:51:22.355Z,99302.84
2022-09-22T01:54:18.313Z,99300.71
2022-09-22T01:56:56.749Z,99300.36
2022-09-22T01:59:32.549Z,99299.91
2022-09-22T02:02:37.966Z,99298.35
2022-09-22T02:05:15.109Z,99298.85
2022-09-22T02:07:50.113Z,99294.44
2022-09-22T02:10:28.073Z,99297.30
2022-09-22T02:12:56.031Z,99296.52
2022-09-22T02:15:43.992Z,99299.25
2022-09-22T02:18:25.228Z,99300.00
2022-09-22T02:20:57.263Z,99302.31
2022-09-22T02:23:25.812Z,99299.16
2022-09-22T02:26:02.017Z,99294.61
2022-09-22T02:28:37.895Z,99291.76
2022-09-22T02:31:19.929Z,99296.35
2022-09-22T02:33:56.559Z,99297.02
2022-09-22T02:36:45.507Z,99295.14
2022-09-22T02:39:30.431Z,99297.73
2022-09-22T02:42:32.626Z,99293.91
2022-09-22T02:45:09.547Z,99293.12
2022-09-22T02:47:50.601Z,99290.75
2022-09-22T02:50:27.148Z,99288.59
2022-09-22T02:53:04.622Z,99294.52
2022-09-22T02:55:32.876Z,99286.77
2022-09-22T02:58:01.882Z,99287.70
2022-09-22T03:00:37.078Z,99289.45
2022-09-22T03:03:11.625Z,99286.11
2022-09-22T03:05:43.840Z,99287.65
2022-09-22T03:08:11.755Z,99288.52
2022-09-22T03:10:45.028Z,99288.66
2022-09-22T03:13:17.539Z,99288.42
2022-09-22T03:15:49.849Z,99288.40
2022-09-22T03:18:17.676Z,99287.19
2022-09-22T03:20:47.202Z,99284.54
2022-09-22T03:23:17.596Z,99284.41
2022-09-22T03:25:45.284Z,99288.20
2022-09-22T03:28:14.191Z,99287.48
2022-09-22T03:30:48.490Z,99283.41
2022-09-22T03:33:16.242Z,99283.63
2022-09-22T03:35:48.598Z,99286.29
2022-09-22T03:38:17.147Z,99287.85
2022-09-22T03:40:54.256Z,99286.96
2022-09-22T03:43:26.882Z,99287.86
2022-09-22T03:46:05.310Z,99285.16
2022-09-22T03:48:33.290Z,99287.27
2022-09-22T03:51:01.029Z,99290.42
2022-09-22T03:53:37.052Z,99287.64
2022-09-22T03:56:13.115Z,99288.40
2022-09-22T03:58:45.433Z,99290.48
2022-09-22T04:01:13.813Z,99288.88
2022-09-22T04:03:45.332Z,99287.77
2022-09-22T04:06:17.512Z,99288.45
2022-09-22T04:08:49.413Z,99292.05
2022-09-22T04:11:17.137Z,99295.88
2022-09-22T04:13:48.837Z,99298.53
2022-09-22T04:16:21.605Z,99300.84
2022-09-22T04:18:50.244Z,99299.21
2022-09-22T04:21:18.184Z,99299.58
2022-09-22T04:23:49.687Z,99296.09
2022-09-22T04:26:17.754Z,99299.19
2022-09-22T04:28:45.481Z,99299.99
2022-09-22T04:31:13.242Z,99302.20
2022-09-22T04:33:48.578Z,99298.95
2022-09-22T04:36:16.491Z,99297.90
2022-09-22T04:38:48.189Z,99302.01
2022-09-22T04:41:15.878Z,99302.36
2022-09-22T04:43:43.810Z,99303.42
2022-09-22T04:46:14.033Z,99303.71
2022-09-22T04:48:45.808Z,99304.20
2022-09-22T04:51:17.809Z,99306.35
2022-09-22T04:53:45.573Z,99306.45
2022-09-22T04:56:15.199Z,99307.26
2022-09-22T04:58:46.857Z,99305.30
2022-09-22T05:01:14.671Z,99308.80
2022-09-22T05:03:47.704Z,99311.77
2022-09-22T05:06:15.650Z,99308.85
2022-09-22T05:08:43.342Z,99309.88
2022-09-22T05:11:14.957Z,99311.48
2022-09-22T05:13:43.793Z,99312.55
2022-09-22T05:16:14.278Z,99309.42
2022-09-22T05:18:42.386Z,99311.81
2022-09-22T05:21:14.439Z,99306.42
2022-09-22T05:23:49.048Z,99308.25
2022-09-22T05:26:17.095Z,99314.61
2022-09-22T05:28:45.597Z,99312.08
2022-09-22T05:31:14.396Z,99317.31
2022-09-22T05:33:48.087Z,99319.02
2022-09-22T05:36:19.745Z,99317.58
2022-09-22T05:38:47.507Z,99317.13
2022-09-22T05:41:15.489Z,99313.27
2022-09-22T05:43:43.453Z,99311.86
2022-09-22T05:46:11.751Z,99316.23
2022-09-22T05:48:39.689Z,99314.55
2022-09-22T05:51:07.535Z,99320.41
2022-09-22T05:53:35.628Z,99324.91
2022-09-22T05:56:03.422Z,99325.70
2022-09-22T05:58:31.629Z,99324.57
2022-09-22T06:00:59.415Z,99331.02
2022-09-22T06:03:27.498Z,99341.00
2022-09-22T06:05:55.289Z,99339.34
2022-09-22T06:08:23.439Z,99340.74
2022-09-22T06:10:51.534Z,99340.35
2022-09-22T06:13:19.658Z,99341.75
2022-09-22T06:15:48.886Z,99344.20
2022-09-22T06:18:24.531Z,99345.35
2022-09-22T06:20:56.293Z,99346.54
2022-09-22T06:23:26.029Z,99344.67
2022-09-22T06:25:59.674Z,99347.44
2022-09-22T06:28:27.459Z,99350.67
2022-09-22T06:30:58.953Z,99348.04
2022-09-22T06:33:28.109Z,99349.60
2022-09-22T06:35:58.251Z,99350.06
2022-09-22T06:38:25.990Z,99346.23
2022-09-22T06:40:59.202Z,99348.65
2022-09-22T06:43:27.050Z,99350.45
2022-09-22T06:45:59.678Z,99350.96
2022-09-22T06:48:27.798Z,99352.36
2022-09-22T06:50:55.873Z,99354.66
2022-09-22T06:53:26.995Z,99357.20
2022-09-22T06:55:56.105Z,99354.76
2022-09-22T06:58:24.286Z,99354.02
2022-09-22T07:00:53.953Z,99355.23
2022-09-22T07:03:24.472Z,99360.41
2022-09-22T07:05:54.404Z,99359.73
2022-09-22T07:08:24.097Z,99362.91
2022-09-22T07:11:04.296Z,99362.85
2022-09-22T07:13:32.912Z,99363.29
2022-09-22T07:16:02.689Z,99367.23
2022-09-22T07:18:31.382Z,99368.08
2022-09-22T07:21:08.223Z,99371.99
2022-09-22T07:23:36.939Z,99368.92
2022-09-22T07:26:07.083Z,99375.80
2022-09-22T07:28:36.782Z,99370.43
2022-09-22T07:31:07.584Z,99366.69
2022-09-22T07:33:37.283Z,99364.23
2022-09-22T07:36:12.167Z,99365.50
2022-09-22T07:38:42.155Z,99365.02
2022-09-22T07:41:15.653Z,99367.30
2022-09-22T07:43:43.723Z,99366.09
2022-09-22T07:46:13.440Z,99367.33
2022-09-22T07:48:44.474Z,99369.48
2022-09-22T07:51:21.813Z,99369.54
2022-09-22T07:53:54.644Z,99368.14
2022-09-22T07:56:29.268Z,99370.22
2022-09-22T07:58:57.500Z,99367.14
2022-09-22T08:01:31.531Z,99370.71
2022-09-22T08:03:59.533Z,99368.88
2022-09-22T08:06:28.888Z,99369.49
2022-09-22T08:08:57.813Z,99374.96
2022-09-22T08:11:29.469Z,99375.28
2022-09-22T08:14:02.668Z,99375.03
2022-09-22T08:16:33.986Z,99374.42
2022-09-22T08:19:10.769Z,99375.13
2022-09-22T08:21:48.317Z,99373.52
2022-09-22T08:24:23.095Z,99373.75
2022-09-22T08:26:55.168Z,99375.52
2022-09-22T08:29:24.849Z,99377.79
2022-09-22T08:31:54.528Z,99378.18
2022-09-22T08:34:23.480Z,99379.57
2022-09-22T08:36:52.470Z,99379.57
2022-09-22T08:39:20.509Z,99377.42
2022-09-22T08:41:48.312Z,99378.77
2022-09-22T08:44:23.148Z,99377.15
2022-09-22T08:46:53.631Z,99379.14
2022-09-22T08:49:57.061Z,99385.52
2022-09-22T08:52:39.068Z,99385.25
2022-09-22T08:55:20.237Z,99386.48
2022-09-22T08:58:16.775Z,99386.71
2022-09-22T09:00:56.849Z,99385.29
2022-09-22T09:03:52.239Z,99385.27
2022-09-22T09:06:39.664Z,99387.55
2022-09-22T09:09:21.152Z,99392.26
2022-09-22T09:12:22.294Z,99389.69
2022-09-22T09:15:05.520Z,99390.64
2022-09-22T09:17:37.583Z,99389.27
2022-09-22T09:20:20.095Z,99389.33
2022-09-22T09:22:56.462Z,99384.28
2022-09-22T09:25:42.794Z,99383.86
2022-09-22T09:28:24.185Z,99386.91
2022-09-22T09:31:05.043Z,99385.46
2022-09-22T09:33:46.584Z,99386.21
2022-09-22T09:36:20.817Z,99385.73
2022-09-22T09:38:56.996Z,99384.30
2022-09-22T09:41:32.831Z,99388.15
2022-09-22T09:44:03.460Z,99388.14
2022-09-22T09:46:50.869Z,99385.84
2022-09-22T09:49:21.412Z,99388.88
2022-09-22T09:51:53.274Z,99388.92
2022-09-22T09:54:23.596Z,99389.27
2022-09-22T09:57:28.096Z,99388.50
2022-09-22T10:00:32.479Z,99388.84
2022-09-22T10:03:22.151Z,99388.08
2022-09-22T10:06:06.418Z,99390.42
2022-09-22T10:08:51.132Z,99392.88
2022-09-22T10:11:32.862Z,99389.88
2022-09-22T10:14:01.327Z,99392.30
2022-09-22T10:16:33.641Z,99392.71
2022-09-22T10:19:21.318Z,99395.04
2022-09-22T10:21:49.758Z,99395.45
2022-09-22T10:24:31.692Z,99394.48
2022-09-22T10:27:02.564Z,99394.64
2022-09-22T10:29:33.696Z,99391.60
2022-09-22T10:32:06.541Z,99390.05
2022-09-22T10:34:37.971Z,99391.34
2022-09-22T10:37:10.837Z,99389.20
2022-09-22T10:39:51.326Z,99391.34
2022-09-22T10:42:23.457Z,99390.31
2022-09-22T10:44:53.248Z,99386.31
2022-09-22T10:47:26.702Z,99385.52
2022-09-22T10:50:07.420Z,99388.61
2022-09-22T10:52:55.977Z,99384.98
2022-09-22T10:55:30.986Z,99385.50
2022-09-22T10:58:04.868Z,99386.04
2022-09-22T11:00:41.213Z,99385.45
2022-09-22T11:03:27.533Z,99382.44
2022-09-22T11:06:33.288Z,99381.62
2022-09-22T11:09:36.462Z,99380.02
2022-09-22T11:12:29.648Z,99374.70
2022-09-22T11:15:14.541Z,99370.68
2022-09-22T11:17:53.435Z,99372.17
2022-09-22T11:20:33.994Z,99364.21
2022-09-22T11:23:17.255Z,99368.67
2022-09-22T11:26:12.683Z,99363.02
2022-09-22T11:29:07.619Z,99362.98
2022-09-22T11:32:06.087Z,99357.09
2022-09-22T11:34:49.273Z,99356.57
2022-09-22T11:37:32.675Z,99355.22
2022-09-22T11:40:03.749Z,99354.23
2022-09-22T11:42:44.481Z,99352.93
2022-09-22T11:45:34.465Z,99356.37
2022-09-22T11:48:40.733Z,99354.90
2022-09-22T11:51:34.982Z,99351.06
2022-09-22T11:54:47.223Z,99349.38
2022-09-22T11:57:24.105Z,99353.05
2022-09-22T11:59:58.487Z,99347.98
2022-09-22T12:02:41.634Z,99342.73
2022-09-22T12:05:36.443Z,99333.94
2022-09-22T12:08:21.431Z,99331.85
2022-09-22T12:10:51.558Z,99328.16
2022-09-22T12:13:31.542Z,99325.03
2022-09-22T12:16:19.641Z,99319.95
2022-09-22T12:18:53.832Z,99331.45
2022-09-22T12:21:46.251Z,99337.31
2022-09-22T12:24:14.692Z,99341.05
2022-09-22T12:26:46.557Z,99346.31
2022-09-22T12:29:14.793Z,99344.86
2022-09-22T12:31:49.534Z,99346.96
2022-09-22T12:34:21.275Z,99345.23
2022-09-22T12:36:53.032Z,99342.02
2022-09-22T12:39:22.778Z,99340.58
2022-09-22T12:41:58.033Z,99337.29
2022-09-22T12:44:27.792Z,99333.70
2022-09-22T12:47:02.076Z,99329.08
2022-09-22T12:49:30.999Z,99330.09
2022-09-22T12:51:59.720Z,99324.27
2022-09-22T12:54:37.836Z,99323.76
2022-09-22T12:57:23.269Z,99317.09
2022-09-22T13:00:11.510Z,99324.10
2022-09-22T13:02:46.442Z,99325.27
2022-09-22T13:05:26.290Z,99327.35
2022-09-22T13:07:55.913Z,99323.05
2022-09-22T13:10:24.274Z,99326.62
2022-09-22T13:13:01.877Z,99329.08
2022-09-22T13:15:34.548Z,99329.80
2022-09-22T13:18:02.767Z,99326.70
2022-09-22T13:20:34.377Z,99324.09
2022-09-22T13:23:13.301Z,99323.77
2022-09-22T13:25:44.954Z,99325.28
2022-09-22T13:28:22.246Z,99329.15
2022-09-22T13:31:09.528Z,99330.36
2022-09-22T13:33:37.740Z,99328.41
2022-09-22T13:36:16.458Z,99334.19
2022-09-22T13:38:51.390Z,99333.59
2022-09-22T13:41:26.526Z,99331.95
2022-09-22T13:44:08.220Z,99332.67
2022-09-22T13:46:46.538Z,99327.89
2022-09-22T13:49:31.454Z,99321.16
2022-09-22T13:52:04.945Z,99317.33
2022-09-22T13:54:35.374Z,99312.65
2022-09-22T13:57:07.074Z,99313.30
2022-09-22T13:59:41.596Z,99317.40
2022-09-22T14:02:13.468Z,99314.12
2022-09-22T14:04:53.564Z,99312.04
2022-09-22T14:07:23.634Z,99309.21
2022-09-22T14:09:52.679Z,99311.96
2022-09-22T14:12:21.410Z,99306.30
2022-09-22T14:14:49.607Z,99304.91
2022-09-22T14:17:24.655Z,99299.64
2022-09-22T14:20:04.540Z,99298.73
2022-09-22T14:22:40.441Z,99291.26
2022-09-22T14:25:22.423Z,99296.83
2022-09-22T14:27:55.643Z,99300.34
2022-09-22T14:30:29.293Z,99297.27
2022-09-22T14:33:02.356Z,99294.20
2022-09-22T14:35:36.551Z,99292.89
2022-09-22T14:38:15.869Z,99295.48
2022-09-22T14:40:54.229Z,99289.33
2022-09-22T14:43:42.582Z,99286.02
2022-09-22T14:46:34.059Z,99284.19
2022-09-22T14:49:36.243Z,99284.53
2022-09-22T14:52:07.773Z,99279.27
2022-09-22T14:54:36.432Z,99283.36
2022-09-22T14:57:08.201Z,99288.73
2022-09-22T14:59:57.454Z,99286.61
2022-09-22T15:02:36.569Z,99290.04
2022-09-22T15:05:05.526Z,99291.35
2022-09-22T15:07:36.519Z,99292.73
2022-09-22T15:10:20.465Z,99294.33
2022-09-22T15:12:49.782Z,99291.73
2022-09-22T15:15:19.844Z,99292.33
2022-09-22T15:18:08.725Z,99292.53
2022-09-22T15:20:47.875Z,99289.48
2022-09-22T15:23:28.675Z,99296.30
2022-09-22T15:25:57.183Z,99291.78
2022-09-22T15:28:27.184Z,99287.97
2022-09-22T15:30:55.174Z,99286.55
2022-09-22T15:33:25.167Z,99287.57
2022-09-22T15:35:57.125Z,99291.41
2022-09-22T15:38:29.864Z,99293.01
2022-09-22T15:41:01.512Z,99292.14
2022-09-22T15:43:31.694Z,99294.44
2022-09-22T15:46:03.259Z,99296.77
2022-09-22T15:48:38.561Z,99293.64
2022-09-22T15:51:16.570Z,99291.70
2022-09-22T15:53:44.606Z,99288.61
2022-09-22T15:56:20.940Z,99290.73
2022-09-22T15:58:52.981Z,99287.57
2022-09-22T16:01:20.890Z,99293.12
2022-09-22T16:03:53.195Z,99287.98
2022-09-22T16:06:23.510Z,99285.65
2022-09-22T16:08:55.268Z,99295.75
2022-09-22T16:11:31.106Z,99293.35
2022-09-22T16:14:03.670Z,99293.90
2022-09-22T16:16:36.940Z,99295.45
2022-09-22T16:19:10.555Z,99296.68
2022-09-22T16:21:49.530Z,99298.73
2022-09-22T16:24:17.544Z,99301.92
2022-09-22T16:26:47.108Z,99303.25
2022-09-22T16:29:17.927Z,99301.27
2022-09-22T16:31:47.031Z,99306.73
2022-09-22T16:34:17.654Z,99307.42
2022-09-22T16:36:47.681Z,99309.55
2022-09-22T16:39:15.654Z,99310.66
2022-09-22T16:41:47.027Z,99314.75
2022-09-22T16:44:18.231Z,99318.52
2022-09-22T16:46:46.233Z,99319.48
2022-09-22T16:49:17.540Z,99320.70
2022-09-22T16:51:49.757Z,99323.88
2022-09-22T16:54:20.356Z,99327.25
2022-09-22T16:56:51.006Z,99329.38
2022-09-22T16:59:22.538Z,99329.17
2022-09-22T17:01:52.349Z,99327.93
2022-09-22T17:04:21.517Z,99331.73
2022-09-22T17:06:54.700Z,99335.64
2022-09-22T17:09:22.856Z,99332.70
2022-09-22T17:11:54.965Z,99339.64
2022-09-22T17:14:24.444Z,99338.45
2022-09-22T17:16:56.839Z,99339.09
2022-09-22T17:19:27.996Z,99341.67
2022-09-22T17:21:59.229Z,99340.80
2022-09-22T17:24:27.561Z,99346.94
2022-09-22T17:26:59.899Z,99346.21
2022-09-22T17:29:32.877Z,99348.23
2022-09-22T17:32:05.647Z,99340.10
2022-09-22T17:34:37.016Z,99334.61
2022-09-22T17:37:07.935Z,99338.70
2022-09-22T17:39:37.187Z,99346.11
2022-09-22T17:42:06.698Z,99366.85
2022-09-22T17:44:36.234Z,99371.08
2022-09-22T17:47:25.811Z,99380.36
2022-09-22T17:50:14.002Z,99397.66
2022-09-22T17:53:01.581Z,99404.08
2022-09-22T17:55:31.006Z,99405.64
2022-09-22T17:58:01.613Z,99400.93
2022-09-22T18:00:32.055Z,99402.45
2022-09-22T18:03:00.247Z,99397.05
2022-09-22T18:05:33.734Z,99398.09
2022-09-22T18:08:04.745Z,99398.27
2022-09-22T18:10:35.377Z,99403.63
2022-09-22T18:13:06.137Z,99404.40
2022-09-22T18:15:38.396Z,99402.52
2022-09-22T18:18:07.900Z,99404.35
2022-09-22T18:20:35.868Z,99405.44
2022-09-22T18:23:07.338Z,99401.98
2022-09-22T18:25:36.926Z,99398.66
2022-09-22T18:28:08.379Z,99394.21
2022-09-22T18:30:41.690Z,99393.28
2022-09-22T18:33:11.150Z,99392.55
2022-09-22T18:35:41.283Z,99389.00
2022-09-22T18:38:12.360Z,99386.39
2022-09-22T18:40:41.965Z,99384.09
2022-09-22T18:43:10.895Z,99385.73
2022-09-22T18:45:38.849Z,99384.85
2022-09-22T18:48:09.836Z,99383.51
2022-09-22T18:50:39.523Z,99385.71
2022-09-22T18:53:07.468Z,99385.02
2022-09-22T18:55:37.100Z,99385.28
2022-09-22T18:58:05.046Z,99381.63
2022-09-22T19:00:34.485Z,99382.73
2022-09-22T19:03:03.668Z,99383.48
2022-09-22T19:05:33.116Z,99384.58
2022-09-22T19:08:03.497Z,99386.61
2022-09-22T19:10:31.949Z,99386.75
2022-09-22T19:13:00.731Z,99386.58
2022-09-22T19:15:30.121Z,99383.69
2022-09-22T19:17:58.250Z,99386.95
2022-09-22T19:20:28.461Z,99381.63
2022-09-22T19:22:57.020Z,99381.21
2022-09-22T19:25:27.254Z,99377.45
2022-09-22T19:27:55.372Z,99380.48
2022-09-22T19:30:26.558Z,99378.38
2022-09-22T19:32:56.343Z,99382.77
2022-09-22T19:35:28.471Z,99378.65
2022-09-22T19:37:57.989Z,99377.42
2022-09-22T19:40:27.433Z,99375.95
2022-09-22T19:42:56.265Z,99376.39
2022-09-22T19:45:26.686Z,99377.38
2022-09-22T19:47:58.615Z,99374.25
2022-09-22T19:50:27.632Z,99379.93
2022-09-22T19:52:56.744Z,99383.09
2022-09-22T19:55:25.802Z,99387.02
2022-09-22T19:57:56.740Z,99387.94
2022-09-22T20:00:28.654Z,99390.45
2022-09-22T20:03:01.379Z,99392.74
2022-09-22T20:05:37.236Z,99392.00
2022-09-22T20:08:08.365Z,99389.00
2022-09-22T20:10:37.663Z,99388.95
2022-09-22T20:13:25.621Z,99386.14
2022-09-22T20:15:53.661Z,99387.48
2022-09-22T20:18:22.042Z,99386.97
2022-09-22T20:20:53.581Z,99382.79
2022-09-22T20:23:22.016Z,99380.59
2022-09-22T20:25:52.226Z,99381.46
2022-09-22T20:28:22.407Z,99378.63
2022-09-22T20:30:50.750Z,99379.44
2022-09-22T20:33:24.187Z,99377.36
2022-09-22T20:35:57.204Z,99375.13
2022-09-22T20:38:25.570Z,99374.39
2022-09-22T20:40:53.865Z,99372.81
2022-09-22T20:43:22.602Z,99371.83
2022-09-22T20:45:50.865Z,99369.45
2022-09-22T20:48:19.638Z,99367.48
2022-09-22T20:51:02.820Z,99367.52
2022-09-22T20:53:37.471Z,99365.34
2022-09-22T20:56:11.808Z,99367.42
2022-09-22T20:58:46.827Z,99368.33
2022-09-22T21:01:20.113Z,99366.99
2022-09-22T21:03:50.876Z,99364.96
2022-09-22T21:06:27.349Z,99365.78
2022-09-22T21:09:13.406Z,99366.98
2022-09-22T21:11:48.620Z,99362.91
2022-09-22T21:14:16.415Z,99362.95
2022-09-22T21:16:52.166Z,99360.88
2022-09-22T21:19:22.097Z,99358.70
2022-09-22T21:21:50.734Z,99357.36
2022-09-22T21:24:18.376Z,99360.02
2022-09-22T21:26:49.876Z,99360.54
2022-09-22T21:29:17.670Z,99357.86
2022-09-22T21:31:51.118Z,99356.95
2022-09-22T21:34:18.936Z,99356.09
2022-09-22T21:36:46.968Z,99354.21
2022-09-22T21:39:19.551Z,99353.21
2022-09-22T21:41:47.278Z,99352.55
2022-09-22T21:44:15.178Z,99355.85
2022-09-22T21:46:45.652Z,99354.16
2022-09-22T21:49:16.043Z,99351.09
2022-09-22T21:51:47.363Z,99347.68
2022-09-22T21:54:23.170Z,99346.84
2022-09-22T21:56:54.118Z,99346.70
2022-09-22T21:59:21.851Z,99348.44
2022-09-22T22:01:49.669Z,99353.06
2022-09-22T22:04:20.793Z,99349.28
2022-09-22T22:06:51.798Z,99347.13
2022-09-22T22:09:24.173Z,99346.86
2022-09-22T22:11:59.836Z,99344.13
2022-09-22T22:14:35.706Z,99338.73
2022-09-22T22:17:07.395Z,99336.75
2022-09-22T22:19:36.740Z,99338.05
2022-09-22T22:22:06.072Z,99333.91
2022-09-22T22:24:43.445Z,99336.41
2022-09-22T22:27:14.607Z,99336.92
2022-09-22T22:29:43.944Z,99331.89
2022-09-22T22:32:14.805Z,99331.88
2022-09-22T22:34:42.490Z,99335.05
2022-09-22T22:37:11.508Z,99332.22
2022-09-22T22:39:41.145Z,99336.19
2022-09-22T22:42:09.054Z,99332.34
2022-09-22T22:44:37.007Z,99334.23
2022-09-22T22:47:11.601Z,99327.17
2022-09-22T22:49:40.101Z,99328.16
2022-09-22T22:52:08.009Z,99326.41
2022-09-22T22:54:37.344Z,99324.39
2022-09-22T22:57:09.066Z,99318.84
2022-09-22T22:59:36.936Z,99318.45
2022-09-22T23:02:04.904Z,99314.23
2022-09-22T23:04:36.289Z,99314.94
2022-09-22T23:07:04.087Z,99316.42
2022-09-22T23:09:33.076Z,99315.62
2022-09-22T23:12:03.166Z,99317.28
2022-09-22T23:14:31.141Z,99322.42
2022-09-22T23:16:58.905Z,99316.39
2022-09-22T23:19:26.934Z,99313.90
2022-09-22T23:21:57.496Z,99313.98
2022-09-22T23:24:25.298Z,99313.71
2022-09-22T23:26:57.638Z,99313.30
2022-09-22T23:29:25.546Z,99308.48
2022-09-22T23:31:55.149Z,99305.16
2022-09-22T23:34:27.781Z,99304.83
2022-09-22T23:36:55.548Z,99305.60
2022-09-22T23:39:23.467Z,99305.30
2022-09-22T23:41:52.842Z,99305.68
2022-09-22T23:44:23.681Z,99305.33
2022-09-22T23:46:54.841Z,99303.89
2022-09-22T23:49:22.723Z,99304.61
2022-09-22T23:51:52.305Z,99306.13
2022-09-22T23:54:20.010Z,99307.79
2022-09-22T23:56:51.103Z,99305.15
2022-09-22T23:59:18.761Z,99302.41
